Time;durP1;ratioP1;P1;durP2;ratioP2;P2;SDS_P1;SDS_P2;PMS_P1;PMS_P2;Temp;Humidity;BMP_temperature;BMP_pressure;BME280_temperature;BME280_humidity;BME280_pressure;Samples;Min_cycle;Max_cycle;Signal;HPM_P1;HPM_P2
2020/12/03 12:54:58;;;;;;;16.60;10.93;;;1.70;99.90;;;;;;5035234;28;20518;-89
2020/12/03 12:57:27;;;;;;;19.30;11.40;;;1.80;99.90;;;;;;5034672;28;20538;-89
2020/12/03 12:59:53;;;;;;;19.93;12.10;;;1.80;99.90;;;;;;5038997;28;20538;-89
2020/12/03 13:02:20;;;;;;;24.43;12.53;;;1.60;99.90;;;;;;5035368;28;20801;-89
2020/12/03 13:04:47;;;;;;;21.90;12.90;;;1.80;99.90;;;;;;5034944;28;20430;-89
2020/12/03 13:07:14;;;;;;;16.87;10.57;;;1.80;99.90;;;;;;5037209;28;20448;-89
2020/12/03 13:09:41;;;;;;;19.30;10.97;;;1.80;99.90;;;;;;5035869;28;20462;-89
2020/12/03 13:12:07;;;;;;;19.10;11.10;;;1.90;99.90;;;;;;5034856;28;20446;-89
2020/12/03 13:14:35;;;;;;;22.37;12.90;;;2.10;99.90;;;;;;5034245;28;20590;-89
2020/12/03 13:17:02;;;;;;;17.03;10.23;;;2.30;99.90;;;;;;5037731;28;20796;-90
2020/12/03 13:19:29;;;;;;;19.60;12.67;;;2.20;99.90;;;;;;5035641;28;20408;-89
2020/12/03 13:21:57;;;;;;;17.33;10.83;;;2.30;99.90;;;;;;5034374;28;20436;-89
2020/12/03 13:24:25;;;;;;;18.17;11.50;;;2.00;99.90;;;;;;5040507;28;20444;-90
2020/12/03 13:26:52;;;;;;;15.63;10.10;;;2.10;99.90;;;;;;5035562;28;20478;-89
2020/12/03 13:29:19;;;;;;;20.17;11.97;;;2.10;99.90;;;;;;5033655;28;20468;-89
2020/12/03 13:31:47;;;;;;;17.40;11.20;;;2.30;99.90;;;;;;5034916;28;20444;-89
2020/12/03 13:34:14;;;;;;;17.93;11.17;;;2.10;99.90;;;;;;5034279;28;20489;-89
2020/12/03 13:36:42;;;;;;;17.40;10.63;;;2.10;99.90;;;;;;5034708;28;20461;-89
2020/12/03 13:39:08;;;;;;;15.87;10.20;;;2.20;99.90;;;;;;5034459;28;20438;-89
2020/12/03 13:41:36;;;;;;;18.17;11.40;;;2.20;99.90;;;;;;5038282;28;20449;-89
2020/12/03 13:44:03;;;;;;;21.30;10.23;;;2.20;99.90;;;;;;5053735;28;20455;-89
2020/12/03 13:46:30;;;;;;;17.77;11.97;;;2.10;99.90;;;;;;5034360;28;20478;-90
2020/12/03 13:48:58;;;;;;;16.67;11.70;;;2.20;99.90;;;;;;5034659;28;20428;-90
2020/12/03 13:51:24;;;;;;;18.77;11.77;;;2.30;99.90;;;;;;5034478;28;20443;-90
2020/12/03 13:53:51;;;;;;;23.40;12.17;;;2.60;99.90;;;;;;5035309;28;20525;-92
2020/12/03 13:56:19;;;;;;;16.43;10.20;;;2.50;99.90;;;;;;5034632;28;20810;-90
2020/12/03 13:58:46;;;;;;;17.63;11.87;;;2.70;99.90;;;;;;5034880;28;20447;-91
2020/12/03 14:01:13;;;;;;;17.53;11.90;;;2.50;99.90;;;;;;5035326;28;20973;-91
2020/12/03 14:03:40;;;;;;;17.97;11.83;;;2.60;99.90;;;;;;5035233;28;20447;-90
2020/12/03 14:06:08;;;;;;;16.43;10.87;;;2.40;99.90;;;;;;5035106;28;20516;-91
2020/12/03 14:08:35;;;;;;;20.20;12.27;;;2.50;99.90;;;;;;5035323;28;20439;-91
2020/12/03 14:11:02;;;;;;;501.57;182.27;;;2.80;99.90;;;;;;5034070;28;20428;-90
2020/12/03 14:13:29;;;;;;;43.70;20.90;;;3.10;99.90;;;;;;5033854;28;20566;-90
2020/12/03 14:15:56;;;;;;;29.23;18.00;;;3.20;99.90;;;;;;5033980;28;20543;-90
2020/12/03 14:18:22;;;;;;;17.07;11.27;;;3.30;99.90;;;;;;5034387;28;20447;-90
2020/12/03 14:20:50;;;;;;;14.43;10.67;;;3.10;99.90;;;;;;5034667;28;20428;-90
2020/12/03 14:23:17;;;;;;;18.80;11.60;;;3.10;99.90;;;;;;5034201;28;20416;-90
2020/12/03 14:25:46;;;;;;;17.33;11.87;;;3.40;99.90;;;;;;5033573;28;20479;-89
2020/12/03 14:28:13;;;;;;;19.70;12.40;;;3.60;99.90;;;;;;5033882;28;20452;-87
2020/12/03 14:30:40;;;;;;;19.47;11.50;;;4.00;99.90;;;;;;5033338;28;20514;-88
2020/12/03 14:33:07;;;;;;;19.17;12.33;;;3.90;99.90;;;;;;5033769;28;20962;-90
2020/12/03 14:35:34;;;;;;;17.70;11.33;;;4.00;99.90;;;;;;5033812;28;20523;-90
2020/12/03 14:38:01;;;;;;;17.83;10.67;;;3.70;99.90;;;;;;5034016;28;20446;-92
2020/12/03 14:40:28;;;;;;;16.87;10.60;;;3.20;99.90;;;;;;5033807;28;20479;-93
2020/12/03 14:42:55;;;;;;;13.83;10.77;;;2.70;99.90;;;;;;5033296;28;20534;-92
2020/12/03 14:45:22;;;;;;;19.67;12.70;;;2.20;99.90;;;;;;5033287;28;20506;-92
2020/12/03 14:47:51;;;;;;;16.13;10.77;;;1.90;99.90;;;;;;5038780;28;20431;-91
2020/12/03 14:50:20;;;;;;;17.47;12.07;;;1.50;99.90;;;;;;5053593;28;20465;-92
2020/12/03 14:52:50;;;;;;;18.47;10.97;;;1.50;99.90;;;;;;5053480;28;20466;-92
2020/12/03 14:55:17;;;;;;;15.87;9.57;;;1.50;99.90;;;;;;5052618;28;21018;-92
2020/12/03 14:57:45;;;;;;;14.70;10.40;;;1.40;99.90;;;;;;5033541;28;20448;-91
2020/12/03 15:00:12;;;;;;;14.27;9.70;;;1.40;99.90;;;;;;5033119;28;20451;-92
2020/12/03 15:02:39;;;;;;;16.90;11.83;;;1.40;99.90;;;;;;5033995;28;20451;-93
2020/12/03 15:11:51;;;;;;;11.50;8.20;;;1.20;99.90;;;;;;4933454;29;20966;-92
2020/12/03 15:14:19;;;;;;;12.20;8.83;;;1.20;99.90;;;;;;5022265;28;20554;-91
2020/12/03 15:16:46;;;;;;;10.13;8.17;;;1.00;99.90;;;;;;5032336;28;20440;-90
2020/12/03 15:19:13;;;;;;;12.43;7.83;;;1.00;99.90;;;;;;5037249;28;20451;-91
2020/12/03 15:21:41;;;;;;;12.73;8.73;;;0.90;99.90;;;;;;5032745;28;20451;-91
2020/12/03 15:24:08;;;;;;;12.23;8.40;;;0.80;99.90;;;;;;5032358;28;20534;-90
2020/12/03 15:26:38;;;;;;;12.10;8.17;;;0.70;99.90;;;;;;5032200;28;20455;-90
2020/12/03 15:29:05;;;;;;;10.17;7.40;;;0.70;99.90;;;;;;5032806;28;20467;-89
2020/12/03 15:31:34;;;;;;;14.30;8.30;;;0.60;99.90;;;;;;5032981;28;20853;-90
2020/12/03 15:34:01;;;;;;;16.70;9.13;;;0.50;99.90;;;;;;5032842;28;20495;-91
2020/12/03 15:36:28;;;;;;;11.77;7.23;;;0.40;99.90;;;;;;5032806;28;20471;-90
2020/12/03 15:38:55;;;;;;;12.50;8.30;;;0.40;99.90;;;;;;5033406;28;20462;-91
2020/12/03 15:41:21;;;;;;;10.53;8.60;;;0.30;99.90;;;;;;5032958;28;20476;-90
2020/12/03 15:43:48;;;;;;;13.13;8.77;;;0.20;99.90;;;;;;5032882;28;20854;-91
2020/12/03 15:46:15;;;;;;;13.00;9.20;;;0.10;99.90;;;;;;5033650;28;20464;-90
2020/12/03 15:48:42;;;;;;;11.67;8.10;;;0.00;99.90;;;;;;5034535;28;20427;-90
2020/12/03 15:51:09;;;;;;;11.40;7.63;;;-0.10;99.90;;;;;;5032802;28;20446;-91
2020/12/03 15:53:36;;;;;;;12.50;8.77;;;-0.20;99.90;;;;;;5032628;28;20467;-90
2020/12/03 15:56:02;;;;;;;11.63;8.40;;;-0.40;99.90;;;;;;5030887;28;20563;-90
2020/12/03 15:58:30;;;;;;;17.60;10.53;;;-0.50;99.90;;;;;;5028768;28;20492;-91
2020/12/03 16:00:57;;;;;;;16.03;9.53;;;-0.70;99.90;;;;;;5032115;28;20448;-89
2020/12/03 16:03:27;;;;;;;12.67;8.97;;;-0.70;99.90;;;;;;5032377;28;20964;-90
2020/12/03 16:06:03;;;;;;;22.93;10.57;;;-0.80;99.90;;;;;;5032328;28;20482;-90
2020/12/03 16:08:30;;;;;;;22.50;11.70;;;-0.80;99.90;;;;;;5034474;28;20538;-89
2020/12/03 16:10:56;;;;;;;18.83;10.27;;;-0.90;99.90;;;;;;5032341;28;20448;-89
2020/12/03 16:13:23;;;;;;;19.13;11.33;;;-1.10;99.90;;;;;;5033994;28;20423;-89
2020/12/03 16:15:50;;;;;;;24.23;11.67;;;-1.10;99.90;;;;;;5035958;28;20503;-89
2020/12/03 16:18:17;;;;;;;23.23;12.73;;;-1.20;99.90;;;;;;5035943;28;20454;-90
2020/12/03 16:20:47;;;;;;;16.10;9.97;;;-1.30;99.90;;;;;;5037570;28;20450;-89
2020/12/03 16:23:19;;;;;;;16.00;9.87;;;-1.20;99.90;;;;;;5036564;28;20458;-89
2020/12/03 16:25:47;;;;;;;18.33;11.97;;;-1.20;99.90;;;;;;5035787;28;20763;-89
2020/12/03 16:28:14;;;;;;;20.77;11.57;;;-1.20;99.90;;;;;;5035549;28;20559;-90
2020/12/03 16:30:48;;;;;;;16.77;11.23;;;-1.30;99.90;;;;;;5034919;28;20479;-90
2020/12/03 16:33:15;;;;;;;17.00;11.33;;;-1.40;99.90;;;;;;5035300;28;20762;-89
2020/12/03 16:35:42;;;;;;;19.17;11.63;;;-1.50;99.90;;;;;;5035559;28;20467;-89
2020/12/03 16:38:09;;;;;;;18.60;12.13;;;-1.50;99.90;;;;;;5039949;28;20438;-89
2020/12/03 16:40:37;;;;;;;18.07;13.20;;;-1.60;99.90;;;;;;5054670;28;20838;-90
2020/12/03 16:43:04;;;;;;;21.10;13.67;;;-1.80;99.90;;;;;;5045168;28;20427;-90
2020/12/03 16:45:31;;;;;;;15.60;10.53;;;-1.80;99.90;;;;;;5034534;28;20447;-90
2020/12/03 16:47:58;;;;;;;12.80;9.00;;;-1.80;99.90;;;;;;5034768;28;21052;-90
2020/12/03 16:50:26;;;;;;;8.77;7.10;;;-1.90;99.90;;;;;;5034927;28;21016;-91
2020/12/03 16:52:52;;;;;;;12.40;7.83;;;-2.00;99.90;;;;;;5034762;28;20850;-91
2020/12/03 16:55:19;;;;;;;11.53;8.07;;;-2.00;99.90;;;;;;5034296;28;20499;-91
2020/12/03 16:57:50;;;;;;;15.13;8.93;;;-2.20;99.90;;;;;;5034656;28;20470;-90
2020/12/03 17:00:16;;;;;;;11.77;8.20;;;-2.20;99.90;;;;;;5037930;28;20774;-91
2020/12/03 17:02:43;;;;;;;13.07;9.57;;;-2.20;99.90;;;;;;5035074;28;20940;-92
2020/12/03 17:05:10;;;;;;;14.70;9.17;;;-2.30;99.90;;;;;;5034908;28;20933;-93
2020/12/03 17:07:37;;;;;;;14.10;10.23;;;-2.40;99.90;;;;;;5046606;28;20451;-92
2020/12/03 17:10:04;;;;;;;14.90;10.40;;;-2.40;99.90;;;;;;5055129;28;20835;-92
2020/12/03 17:12:31;;;;;;;14.90;11.40;;;-2.50;99.90;;;;;;5055023;28;20457;-92
2020/12/03 17:14:59;;;;;;;15.17;12.00;;;-2.50;99.90;;;;;;5045182;28;20490;-92
2020/12/03 17:17:26;;;;;;;18.23;11.90;;;-2.60;99.90;;;;;;5034591;28;20428;-93
2020/12/03 17:19:53;;;;;;;20.90;13.07;;;-2.60;99.90;;;;;;5034400;28;20527;-92
2020/12/03 17:22:20;;;;;;;23.30;14.00;;;-2.60;99.90;;;;;;5034682;28;20467;-92
2020/12/03 17:24:46;;;;;;;25.40;14.07;;;-2.60;99.90;;;;;;5032937;28;20463;-92
2020/12/03 17:27:14;;;;;;;19.37;12.83;;;-2.50;99.90;;;;;;5033994;28;21039;-92
2020/12/03 17:29:41;;;;;;;19.03;12.80;;;-2.50;99.90;;;;;;5033995;28;20427;-92
2020/12/03 17:32:08;;;;;;;20.17;11.80;;;-2.40;99.90;;;;;;5044543;28;20456;-92
2020/12/03 17:34:35;;;;;;;22.73;14.20;;;-2.40;99.90;;;;;;5049567;28;20971;-92
2020/12/03 17:37:06;;;;;;;20.33;12.10;;;-2.40;99.90;;;;;;5037113;28;20458;-91
2020/12/03 17:39:34;;;;;;;23.07;12.90;;;-2.50;99.90;;;;;;5054181;28;20433;-92
2020/12/03 17:42:02;;;;;;;22.57;13.27;;;-2.40;99.90;;;;;;5053236;28;20447;-91
2020/12/03 17:44:28;;;;;;;22.40;12.40;;;-2.40;99.90;;;;;;5038521;28;20441;-92
2020/12/03 17:46:56;;;;;;;19.77;12.33;;;-2.50;99.90;;;;;;5033448;28;20924;-92
2020/12/03 17:49:25;;;;;;;17.90;11.87;;;-2.50;99.90;;;;;;5033500;28;20444;-91
2020/12/03 17:51:52;;;;;;;25.13;14.50;;;-2.50;99.90;;;;;;5032999;28;20436;-92
2020/12/03 17:54:19;;;;;;;26.47;17.00;;;-2.50;99.90;;;;;;5033755;28;20468;-92
2020/12/03 17:56:51;;;;;;;24.83;15.43;;;-2.50;99.90;;;;;;5047407;28;20451;-92
2020/12/03 19:03:40;;;;;;;19.80;13.70;;;-2.00;99.90;;;;;;4869186;29;20424;-88
2020/12/03 19:06:07;;;;;;;19.40;12.90;;;-1.90;99.90;;;;;;4951121;28;20456;-88
2020/12/03 19:08:34;;;;;;;20.07;11.83;;;-1.90;99.90;;;;;;5041125;28;20530;-88
2020/12/03 19:11:02;;;;;;;16.43;10.80;;;-1.80;99.90;;;;;;5054150;28;20447;-88
2020/12/03 19:13:29;;;;;;;17.13;11.07;;;-1.80;99.90;;;;;;5051818;28;20438;-88
2020/12/03 19:15:56;;;;;;;27.37;14.10;;;-1.80;99.90;;;;;;5052357;28;20509;-88
2020/12/03 19:18:23;;;;;;;22.67;15.10;;;-1.80;99.90;;;;;;5052143;28;20431;-88
2020/12/03 19:20:51;;;;;;;22.47;14.57;;;-1.80;99.90;;;;;;5054743;28;20445;-88
2020/12/03 19:23:18;;;;;;;19.53;13.20;;;-1.80;99.90;;;;;;5052012;28;20458;-87
2020/12/03 19:25:45;;;;;;;22.80;11.90;;;-1.80;99.90;;;;;;5051829;28;20442;-89
2020/12/03 19:28:11;;;;;;;21.10;12.63;;;-1.80;99.90;;;;;;5052159;28;20441;-88
2020/12/03 19:30:38;;;;;;;19.30;13.00;;;-1.80;99.90;;;;;;5051474;28;20533;-88
2020/12/03 19:33:05;;;;;;;26.10;12.93;;;-1.70;99.90;;;;;;5051428;28;20447;-88
2020/12/03 19:35:32;;;;;;;19.07;13.57;;;-1.70;99.90;;;;;;5053844;28;20486;-88
2020/12/03 19:38:00;;;;;;;20.50;12.80;;;-1.60;99.90;;;;;;5055120;28;20442;-88
